sensor_id;sensor_type;location;lat;lon;timestamp;pressure;altitude;pressure_sealevel;temperature;humidity
66762;BME280;53672;48.176;16.338;2022-11-20T00:04:06;98746.66;;;0.54;86.30
66762;BME280;53672;48.176;16.338;2022-11-20T00:09:09;98741.38;;;0.54;87.30
66762;BME280;53672;48.176;16.338;2022-11-20T00:14:10;98737.31;;;0.51;85.70
66762;BME280;53672;48.176;16.338;2022-11-20T00:19:10;98745.63;;;0.55;87.12
66762;BME280;53672;48.176;16.338;2022-11-20T00:24:13;98760.59;;;0.49;85.84
66762;BME280;53672;48.176;16.338;2022-11-20T00:29:13;98751.00;;;0.48;87.34
66762;BME280;53672;48.176;16.338;2022-11-20T00:34:13;98757.94;;;0.49;86.85
66762;BME280;53672;48.176;16.338;2022-11-20T00:39:15;98760.00;;;0.47;86.43
66762;BME280;53672;48.176;16.338;2022-11-20T00:44:16;98773.03;;;0.49;86.86
66762;BME280;53672;48.176;16.338;2022-11-20T00:49:16;98782.00;;;0.48;85.85
66762;BME280;53672;48.176;16.338;2022-11-20T00:54:18;98796.88;;;0.49;86.51
66762;BME280;53672;48.176;16.338;2022-11-20T00:59:19;98799.53;;;0.49;86.49
66762;BME280;53672;48.176;16.338;2022-11-20T01:04:19;98806.00;;;0.53;87.46
66762;BME280;53672;48.176;16.338;2022-11-20T01:09:21;98793.34;;;0.55;86.72
66762;BME280;53672;48.176;16.338;2022-11-20T01:14:22;98791.75;;;0.54;88.08
66762;BME280;53672;48.176;16.338;2022-11-20T01:19:23;98798.97;;;0.47;90.62
66762;BME280;53672;48.176;16.338;2022-11-20T01:24:25;98805.59;;;0.38;90.20
66762;BME280;53672;48.176;16.338;2022-11-20T01:29:25;98807.81;;;0.41;92.43
66762;BME280;53672;48.176;16.338;2022-11-20T01:34:26;98795.88;;;0.32;90.53
66762;BME280;53672;48.176;16.338;2022-11-20T01:39:28;98803.03;;;0.31;92.23
66762;BME280;53672;48.176;16.338;2022-11-20T01:44:49;98793.69;;;0.29;93.14
66762;BME280;53672;48.176;16.338;2022-11-20T01:49:53;98785.16;;;0.27;92.60
66762;BME280;53672;48.176;16.338;2022-11-20T01:55:00;98788.25;;;0.24;92.97
66762;BME280;53672;48.176;16.338;2022-11-20T02:00:05;98800.69;;;0.23;91.17
66762;BME280;53672;48.176;16.338;2022-11-20T02:05:18;98803.34;;;0.23;90.94
66762;BME280;53672;48.176;16.338;2022-11-20T02:10:22;98815.78;;;0.23;91.65
66762;BME280;53672;48.176;16.338;2022-11-20T02:15:22;98818.63;;;0.21;92.49
66762;BME280;53672;48.176;16.338;2022-11-20T02:20:23;98808.03;;;0.21;91.20
66762;BME280;53672;48.176;16.338;2022-11-20T02:25:26;98802.38;;;0.18;90.50
66762;BME280;53672;48.176;16.338;2022-11-20T02:30:27;98803.19;;;0.18;89.58
66762;BME280;53672;48.176;16.338;2022-11-20T02:35:41;98818.63;;;0.21;89.43
66762;BME280;53672;48.176;16.338;2022-11-20T02:40:43;98802.38;;;0.18;88.36
66762;BME280;53672;48.176;16.338;2022-11-20T02:45:44;98801.91;;;0.21;88.60
66762;BME280;53672;48.176;16.338;2022-11-20T02:50:44;98799.50;;;0.19;88.97
66762;BME280;53672;48.176;16.338;2022-11-20T02:55:46;98801.56;;;0.17;87.87
66762;BME280;53672;48.176;16.338;2022-11-20T03:00:47;98791.75;;;0.18;88.57
66762;BME280;53672;48.176;16.338;2022-11-20T03:05:47;98778.69;;;0.23;89.89
66762;BME280;53672;48.176;16.338;2022-11-20T03:10:49;98776.47;;;0.20;90.65
66762;BME280;53672;48.176;16.338;2022-11-20T03:15:50;98743.13;;;0.12;90.39
66762;BME280;53672;48.176;16.338;2022-11-20T03:20:57;98751.00;;;0.19;93.76
66762;BME280;53672;48.176;16.338;2022-11-20T03:26:09;98756.88;;;0.21;93.33
66762;BME280;53672;48.176;16.338;2022-11-20T03:31:12;98740.41;;;0.19;93.96
66762;BME280;53672;48.176;16.338;2022-11-20T03:36:15;98751.44;;;0.16;93.25
66762;BME280;53672;48.176;16.338;2022-11-20T03:41:19;98749.69;;;0.10;92.54
66762;BME280;53672;48.176;16.338;2022-11-20T03:46:21;98743.34;;;0.11;94.09
66762;BME280;53672;48.176;16.338;2022-11-20T03:51:22;98749.47;;;0.11;94.90
66762;BME280;53672;48.176;16.338;2022-11-20T03:56:26;98739.22;;;0.15;95.17
66762;BME280;53672;48.176;16.338;2022-11-20T04:01:30;98740.84;;;0.16;94.11
66762;BME280;53672;48.176;16.338;2022-11-20T04:06:34;98741.22;;;0.19;92.28
66762;BME280;53672;48.176;16.338;2022-11-20T04:11:39;98724.28;;;0.20;90.75
66762;BME280;53672;48.176;16.338;2022-11-20T04:16:39;98722.22;;;0.22;93.10
66762;BME280;53672;48.176;16.338;2022-11-20T04:21:40;98716.25;;;0.27;95.75
66762;BME280;53672;48.176;16.338;2022-11-20T04:26:42;98715.91;;;0.23;92.49
66762;BME280;53672;48.176;16.338;2022-11-20T04:31:42;98715.00;;;0.29;93.80
66762;BME280;53672;48.176;16.338;2022-11-20T04:36:43;98702.91;;;0.33;93.27
66762;BME280;53672;48.176;16.338;2022-11-20T04:41:45;98691.84;;;0.36;94.70
66762;BME280;53672;48.176;16.338;2022-11-20T04:46:45;98683.56;;;0.33;90.54
66762;BME280;53672;48.176;16.338;2022-11-20T04:51:46;98677.78;;;0.36;93.92
66762;BME280;53672;48.176;16.338;2022-11-20T04:56:48;98666.84;;;0.32;92.39
66762;BME280;53672;48.176;16.338;2022-11-20T05:01:49;98683.75;;;0.31;89.60
66762;BME280;53672;48.176;16.338;2022-11-20T05:06:50;98671.13;;;0.33;90.84
66762;BME280;53672;48.176;16.338;2022-11-20T05:11:52;98668.91;;;0.30;90.07
66762;BME280;53672;48.176;16.338;2022-11-20T05:16:52;98676.06;;;0.30;89.86
66762;BME280;53672;48.176;16.338;2022-11-20T05:21:53;98688.28;;;0.31;88.33
66762;BME280;53672;48.176;16.338;2022-11-20T05:26:54;98683.41;;;0.28;85.29
66762;BME280;53672;48.176;16.338;2022-11-20T05:31:55;98700.25;;;0.33;84.98
66762;BME280;53672;48.176;16.338;2022-11-20T05:36:55;98699.00;;;0.36;85.95
66762;BME280;53672;48.176;16.338;2022-11-20T05:41:57;98708.13;;;0.40;86.30
66762;BME280;53672;48.176;16.338;2022-11-20T05:46:58;98703.84;;;0.39;85.23
66762;BME280;53672;48.176;16.338;2022-11-20T05:51:58;98688.66;;;0.46;88.03
66762;BME280;53672;48.176;16.338;2022-11-20T05:57:00;98696.97;;;0.49;86.93
66762;BME280;53672;48.176;16.338;2022-11-20T06:02:00;98704.25;;;0.54;86.98
66762;BME280;53672;48.176;16.338;2022-11-20T06:07:01;98711.50;;;0.59;87.69
66762;BME280;53672;48.176;16.338;2022-11-20T06:12:04;98716.50;;;0.67;92.21
66762;BME280;53672;48.176;16.338;2022-11-20T06:17:04;98712.00;;;0.67;94.67
66762;BME280;53672;48.176;16.338;2022-11-20T06:22:05;98716.28;;;0.68;96.38
66762;BME280;53672;48.176;16.338;2022-11-20T06:27:07;98721.34;;;0.70;98.39
66762;BME280;53672;48.176;16.338;2022-11-20T06:32:08;98725.13;;;0.62;97.11
66762;BME280;53672;48.176;16.338;2022-11-20T06:37:08;98748.31;;;0.67;98.18
66762;BME280;53672;48.176;16.338;2022-11-20T06:42:10;98744.28;;;0.64;98.17
66762;BME280;53672;48.176;16.338;2022-11-20T06:47:11;98758.56;;;0.63;97.38
66762;BME280;53672;48.176;16.338;2022-11-20T06:52:11;98763.06;;;0.63;98.39
66762;BME280;53672;48.176;16.338;2022-11-20T06:57:13;98764.97;;;0.44;96.32
66762;BME280;53672;48.176;16.338;2022-11-20T07:02:13;98785.09;;;0.45;98.50
66762;BME280;53672;48.176;16.338;2022-11-20T07:07:14;98786.66;;;0.52;99.29
66762;BME280;53672;48.176;16.338;2022-11-20T07:12:16;98780.69;;;0.57;99.63
66762;BME280;53672;48.176;16.338;2022-11-20T07:17:16;98783.97;;;0.41;96.72
66762;BME280;53672;48.176;16.338;2022-11-20T07:22:17;98784.66;;;0.48;98.62
66762;BME280;53672;48.176;16.338;2022-11-20T07:27:19;98791.00;;;0.47;98.37
66762;BME280;53672;48.176;16.338;2022-11-20T07:32:19;98789.03;;;0.42;96.62
66762;BME280;53672;48.176;16.338;2022-11-20T07:37:20;98794.41;;;0.36;97.42
66762;BME280;53672;48.176;16.338;2022-11-20T07:42:22;98792.13;;;0.39;96.85
66762;BME280;53672;48.176;16.338;2022-11-20T07:47:22;98802.06;;;0.44;96.96
66762;BME280;53672;48.176;16.338;2022-11-20T07:52:25;98800.94;;;0.51;96.96
66762;BME280;53672;48.176;16.338;2022-11-20T07:57:27;98814.25;;;0.45;96.35
66762;BME280;53672;48.176;16.338;2022-11-20T08:02:27;98805.28;;;0.46;96.18
66762;BME280;53672;48.176;16.338;2022-11-20T08:07:28;98805.19;;;0.52;97.22
66762;BME280;53672;48.176;16.338;2022-11-20T08:12:30;98801.28;;;0.55;97.29
66762;BME280;53672;48.176;16.338;2022-11-20T08:17:30;98805.44;;;0.51;97.02
66762;BME280;53672;48.176;16.338;2022-11-20T08:22:31;98805.72;;;0.61;97.51
66762;BME280;53672;48.176;16.338;2022-11-20T08:27:33;98802.44;;;0.77;97.87
66762;BME280;53672;48.176;16.338;2022-11-20T08:32:33;98807.28;;;0.80;96.98
66762;BME280;53672;48.176;16.338;2022-11-20T08:37:33;98821.31;;;0.99;97.38
66762;BME280;53672;48.176;16.338;2022-11-20T08:42:35;98807.53;;;0.90;94.39
66762;BME280;53672;48.176;16.338;2022-11-20T08:47:36;98812.34;;;1.12;95.32
66762;BME280;53672;48.176;16.338;2022-11-20T08:52:37;98823.66;;;1.19;94.74
66762;BME280;53672;48.176;16.338;2022-11-20T08:57:39;98817.03;;;0.98;94.84
66762;BME280;53672;48.176;16.338;2022-11-20T09:02:39;98819.03;;;1.14;95.49
66762;BME280;53672;48.176;16.338;2022-11-20T09:07:40;98800.72;;;1.36;94.92
66762;BME280;53672;48.176;16.338;2022-11-20T09:12:41;98803.31;;;1.54;93.03
66762;BME280;53672;48.176;16.338;2022-11-20T09:17:42;98803.06;;;1.90;92.22
66762;BME280;53672;48.176;16.338;2022-11-20T09:22:42;98797.97;;;1.77;91.57
66762;BME280;53672;48.176;16.338;2022-11-20T09:27:44;98801.88;;;1.51;93.42
66762;BME280;53672;48.176;16.338;2022-11-20T09:32:45;98788.38;;;1.41;94.25
66762;BME280;53672;48.176;16.338;2022-11-20T09:37:45;98796.44;;;1.23;95.05
66762;BME280;53672;48.176;16.338;2022-11-20T09:42:52;98786.97;;;1.27;96.84
66762;BME280;53672;48.176;16.338;2022-11-20T09:53:26;98789.53;;;1.45;93.31
66762;BME280;53672;48.176;16.338;2022-11-20T09:58:35;98780.06;;;1.73;93.71
66762;BME280;53672;48.176;16.338;2022-11-20T10:03:46;98783.66;;;1.67;91.83
66762;BME280;53672;48.176;16.338;2022-11-20T10:08:55;98759.16;;;1.65;92.46
66762;BME280;53672;48.176;16.338;2022-11-20T10:14:10;98761.69;;;1.94;92.42
66762;BME280;53672;48.176;16.338;2022-11-20T10:19:32;98761.72;;;2.23;90.83
66762;BME280;53672;48.176;16.338;2022-11-20T10:24:44;98758.88;;;2.13;91.71
66762;BME280;53672;48.176;16.338;2022-11-20T10:29:57;98766.53;;;1.97;93.40
66762;BME280;53672;48.176;16.338;2022-11-20T10:35:05;98761.91;;;2.04;91.40
66762;BME280;53672;48.176;16.338;2022-11-20T10:40:20;98751.97;;;2.12;90.55
66762;BME280;53672;48.176;16.338;2022-11-20T10:45:35;98753.44;;;2.19;91.47
66762;BME280;53672;48.176;16.338;2022-11-20T10:50:40;98758.41;;;2.55;90.88
66762;BME280;53672;48.176;16.338;2022-11-20T10:55:47;98760.94;;;2.50;90.08
66762;BME280;53672;48.176;16.338;2022-11-20T11:00:52;98749.31;;;2.68;89.08
66762;BME280;53672;48.176;16.338;2022-11-20T11:05:56;98737.13;;;3.17;88.82
66762;BME280;53672;48.176;16.338;2022-11-20T11:11:18;98731.19;;;3.65;87.97
66762;BME280;53672;48.176;16.338;2022-11-20T11:16:24;98724.59;;;3.34;85.87
66762;BME280;53672;48.176;16.338;2022-11-20T11:21:25;98724.56;;;3.51;88.62
66762;BME280;53672;48.176;16.338;2022-11-20T11:26:27;98718.50;;;3.72;85.68
66762;BME280;53672;48.176;16.338;2022-11-20T11:31:30;98722.34;;;3.81;87.04
66762;BME280;53672;48.176;16.338;2022-11-20T11:36:32;98721.28;;;3.82;87.03
66762;BME280;53672;48.176;16.338;2022-11-20T11:41:34;98717.69;;;3.72;86.26
66762;BME280;53672;48.176;16.338;2022-11-20T11:46:37;98715.16;;;3.82;86.74
66762;BME280;53672;48.176;16.338;2022-11-20T11:51:46;98710.13;;;4.55;84.41
66762;BME280;53672;48.176;16.338;2022-11-20T11:56:51;98700.09;;;6.30;76.86
66762;BME280;53672;48.176;16.338;2022-11-20T12:01:56;98682.13;;;6.05;73.96
66762;BME280;53672;48.176;16.338;2022-11-20T12:07:01;98691.34;;;6.50;73.83
66762;BME280;53672;48.176;16.338;2022-11-20T12:12:06;98687.13;;;7.04;74.88
66762;BME280;53672;48.176;16.338;2022-11-20T12:17:13;98680.00;;;6.18;74.01
66762;BME280;53672;48.176;16.338;2022-11-20T12:22:25;98682.47;;;6.34;75.60
66762;BME280;53672;48.176;16.338;2022-11-20T12:27:48;98684.41;;;6.54;74.11
66762;BME280;53672;48.176;16.338;2022-11-20T12:33:09;98691.88;;;6.47;74.74
66762;BME280;53672;48.176;16.338;2022-11-20T12:38:29;98679.59;;;6.71;73.67
66762;BME280;53672;48.176;16.338;2022-11-20T12:43:39;98685.41;;;6.33;74.16
66762;BME280;53672;48.176;16.338;2022-11-20T12:49:01;98682.22;;;6.51;75.82
66762;BME280;53672;48.176;16.338;2022-11-20T12:54:29;98669.69;;;6.77;77.56
66762;BME280;53672;48.176;16.338;2022-11-20T12:59:54;98669.66;;;6.56;75.74
66762;BME280;53672;48.176;16.338;2022-11-20T13:05:13;98660.78;;;6.41;75.58
66762;BME280;53672;48.176;16.338;2022-11-20T13:10:21;98657.88;;;6.62;74.22
66762;BME280;53672;48.176;16.338;2022-11-20T13:15:36;98656.97;;;6.17;75.40
66762;BME280;53672;48.176;16.338;2022-11-20T13:20:43;98653.06;;;6.59;75.82
66762;BME280;53672;48.176;16.338;2022-11-20T13:25:44;98650.09;;;6.46;77.45
66762;BME280;53672;48.176;16.338;2022-11-20T13:30:51;98653.81;;;6.20;77.87
66762;BME280;53672;48.176;16.338;2022-11-20T13:35:58;98643.31;;;6.08;79.80
66762;BME280;53672;48.176;16.338;2022-11-20T13:41:00;98648.13;;;6.01;79.92
66762;BME280;53672;48.176;16.338;2022-11-20T13:46:03;98640.59;;;5.88;79.42
66762;BME280;53672;48.176;16.338;2022-11-20T13:51:12;98640.72;;;5.66;81.05
66762;BME280;53672;48.176;16.338;2022-11-20T13:56:21;98636.66;;;5.53;81.63
66762;BME280;53672;48.176;16.338;2022-11-20T14:01:26;98630.19;;;5.44;82.60
66762;BME280;53672;48.176;16.338;2022-11-20T14:06:33;98625.03;;;5.33;82.13
66762;BME280;53672;48.176;16.338;2022-11-20T14:11:35;98623.31;;;5.11;84.05
66762;BME280;53672;48.176;16.338;2022-11-20T14:16:36;98620.91;;;5.10;85.62
66762;BME280;53672;48.176;16.338;2022-11-20T14:21:39;98625.09;;;5.01;85.58
66762;BME280;53672;48.176;16.338;2022-11-20T14:26:42;98616.88;;;5.07;86.14
66762;BME280;53672;48.176;16.338;2022-11-20T14:31:44;98614.66;;;4.94;85.28
66762;BME280;53672;48.176;16.338;2022-11-20T14:36:49;98618.94;;;4.95;88.05
66762;BME280;53672;48.176;16.338;2022-11-20T14:41:53;98620.78;;;4.95;87.04
66762;BME280;53672;48.176;16.338;2022-11-20T14:46:55;98618.59;;;4.87;87.29
66762;BME280;53672;48.176;16.338;2022-11-20T14:52:13;98605.69;;;4.74;89.13
66762;BME280;53672;48.176;16.338;2022-11-20T14:57:23;98605.28;;;4.55;89.80
66762;BME280;53672;48.176;16.338;2022-11-20T15:02:24;98607.25;;;4.38;90.81
66762;BME280;53672;48.176;16.338;2022-11-20T15:07:28;98599.09;;;4.23;91.82
66762;BME280;53672;48.176;16.338;2022-11-20T15:12:31;98589.09;;;4.08;92.84
66762;BME280;53672;48.176;16.338;2022-11-20T15:17:34;98599.28;;;3.89;94.52
66762;BME280;53672;48.176;16.338;2022-11-20T15:22:39;98603.31;;;3.70;95.38
66762;BME280;53672;48.176;16.338;2022-11-20T15:27:41;98598.31;;;3.52;95.99
66762;BME280;53672;48.176;16.338;2022-11-20T15:32:43;98587.47;;;3.37;97.51
66762;BME280;53672;48.176;16.338;2022-11-20T15:37:45;98586.78;;;3.25;98.67
66762;BME280;53672;48.176;16.338;2022-11-20T15:42:46;98577.38;;;3.17;99.53
66762;BME280;53672;48.176;16.338;2022-11-20T15:47:47;98570.19;;;3.18;100.00
66762;BME280;53672;48.176;16.338;2022-11-20T15:52:49;98571.38;;;3.27;100.00
66762;BME280;53672;48.176;16.338;2022-11-20T15:57:49;98585.38;;;3.39;100.00
66762;BME280;53672;48.176;16.338;2022-11-20T16:02:50;98592.44;;;3.50;100.00
66762;BME280;53672;48.176;16.338;2022-11-20T16:07:53;98582.34;;;3.52;100.00
66762;BME280;53672;48.176;16.338;2022-11-20T16:12:54;98584.94;;;3.47;100.00
66762;BME280;53672;48.176;16.338;2022-11-20T16:17:55;98574.16;;;3.37;100.00
66762;BME280;53672;48.176;16.338;2022-11-20T16:22:58;98566.84;;;3.27;100.00
66762;BME280;53672;48.176;16.338;2022-11-20T16:27:59;98580.84;;;3.18;100.00
66762;BME280;53672;48.176;16.338;2022-11-20T16:33:01;98584.19;;;3.08;100.00
66762;BME280;53672;48.176;16.338;2022-11-20T16:38:04;98598.38;;;2.97;100.00
66762;BME280;53672;48.176;16.338;2022-11-20T16:43:08;98602.16;;;2.84;100.00
66762;BME280;53672;48.176;16.338;2022-11-20T16:48:13;98594.94;;;2.80;100.00
66762;BME280;53672;48.176;16.338;2022-11-20T16:53:17;98594.66;;;2.81;100.00
66762;BME280;53672;48.176;16.338;2022-11-20T16:58:18;98590.56;;;2.90;100.00
66762;BME280;53672;48.176;16.338;2022-11-20T17:03:19;98592.16;;;2.91;100.00
66762;BME280;53672;48.176;16.338;2022-11-20T17:08:21;98596.06;;;2.84;100.00
66762;BME280;53672;48.176;16.338;2022-11-20T17:13:22;98589.63;;;2.80;100.00
66762;BME280;53672;48.176;16.338;2022-11-20T17:18:26;98587.13;;;2.73;100.00
66762;BME280;53672;48.176;16.338;2022-11-20T17:23:29;98576.88;;;2.65;100.00
66762;BME280;53672;48.176;16.338;2022-11-20T17:28:31;98582.84;;;2.55;100.00
66762;BME280;53672;48.176;16.338;2022-11-20T17:33:34;98588.22;;;2.44;100.00
66762;BME280;53672;48.176;16.338;2022-11-20T17:38:37;98585.25;;;2.40;100.00
66762;BME280;53672;48.176;16.338;2022-11-20T17:43:38;98584.44;;;2.40;100.00
66762;BME280;53672;48.176;16.338;2022-11-20T17:48:40;98583.56;;;2.34;100.00
66762;BME280;53672;48.176;16.338;2022-11-20T17:53:44;98591.69;;;2.28;100.00
66762;BME280;53672;48.176;16.338;2022-11-20T17:58:46;98587.75;;;2.30;100.00
66762;BME280;53672;48.176;16.338;2022-11-20T18:03:48;98588.72;;;2.41;100.00
66762;BME280;53672;48.176;16.338;2022-11-20T18:08:51;98585.66;;;2.49;100.00
66762;BME280;53672;48.176;16.338;2022-11-20T18:13:55;98579.94;;;2.57;100.00
66762;BME280;53672;48.176;16.338;2022-11-20T18:18:58;98578.97;;;2.63;100.00
66762;BME280;53672;48.176;16.338;2022-11-20T18:24:02;98564.72;;;2.69;100.00
66762;BME280;53672;48.176;16.338;2022-11-20T18:29:03;98561.56;;;2.72;100.00
66762;BME280;53672;48.176;16.338;2022-11-20T18:34:05;98559.38;;;2.69;100.00
66762;BME280;53672;48.176;16.338;2022-11-20T18:39:09;98544.91;;;2.60;100.00
66762;BME280;53672;48.176;16.338;2022-11-20T18:44:12;98544.41;;;2.46;100.00
66762;BME280;53672;48.176;16.338;2022-11-20T18:49:14;98550.94;;;2.39;100.00
66762;BME280;53672;48.176;16.338;2022-11-20T18:54:17;98548.19;;;2.34;100.00
66762;BME280;53672;48.176;16.338;2022-11-20T18:59:19;98537.81;;;2.32;100.00
66762;BME280;53672;48.176;16.338;2022-11-20T19:04:20;98541.72;;;2.30;100.00
66762;BME280;53672;48.176;16.338;2022-11-20T19:09:23;98543.44;;;2.36;100.00
66762;BME280;53672;48.176;16.338;2022-11-20T19:14:24;98536.03;;;2.38;100.00
66762;BME280;53672;48.176;16.338;2022-11-20T19:19:26;98539.56;;;2.43;100.00
66762;BME280;53672;48.176;16.338;2022-11-20T19:24:29;98533.53;;;2.48;100.00
66762;BME280;53672;48.176;16.338;2022-11-20T19:29:30;98534.34;;;2.48;100.00
66762;BME280;53672;48.176;16.338;2022-11-20T19:34:31;98545.13;;;2.42;100.00
66762;BME280;53672;48.176;16.338;2022-11-20T19:39:35;98537.38;;;2.40;100.00
66762;BME280;53672;48.176;16.338;2022-11-20T19:44:36;98549.00;;;2.51;100.00
66762;BME280;53672;48.176;16.338;2022-11-20T19:49:37;98538.75;;;2.60;100.00
66762;BME280;53672;48.176;16.338;2022-11-20T19:54:40;98537.78;;;2.66;100.00
66762;BME280;53672;48.176;16.338;2022-11-20T19:59:41;98533.00;;;2.68;100.00
66762;BME280;53672;48.176;16.338;2022-11-20T20:04:42;98528.69;;;2.62;100.00
66762;BME280;53672;48.176;16.338;2022-11-20T20:09:45;98533.63;;;2.53;100.00
66762;BME280;53672;48.176;16.338;2022-11-20T20:14:46;98536.75;;;2.50;100.00
66762;BME280;53672;48.176;16.338;2022-11-20T20:19:47;98528.28;;;2.53;100.00
66762;BME280;53672;48.176;16.338;2022-11-20T20:24:49;98538.63;;;2.49;100.00
66762;BME280;53672;48.176;16.338;2022-11-20T20:29:52;98535.22;;;2.37;100.00
66762;BME280;53672;48.176;16.338;2022-11-20T20:34:53;98547.22;;;2.23;100.00
66762;BME280;53672;48.176;16.338;2022-11-20T20:39:55;98551.47;;;2.08;100.00
66762;BME280;53672;48.176;16.338;2022-11-20T20:44:56;98547.69;;;2.03;100.00
66762;BME280;53672;48.176;16.338;2022-11-20T20:49:57;98537.31;;;2.02;100.00
66762;BME280;53672;48.176;16.338;2022-11-20T20:55:00;98543.50;;;2.08;100.00
66762;BME280;53672;48.176;16.338;2022-11-20T21:00:02;98553.09;;;2.09;100.00
66762;BME280;53672;48.176;16.338;2022-11-20T21:05:03;98549.97;;;2.12;100.00
66762;BME280;53672;48.176;16.338;2022-11-20T21:10:06;98538.13;;;2.19;100.00
66762;BME280;53672;48.176;16.338;2022-11-20T21:15:08;98529.19;;;2.25;100.00
66762;BME280;53672;48.176;16.338;2022-11-20T21:20:10;98519.19;;;2.32;100.00
66762;BME280;53672;48.176;16.338;2022-11-20T21:25:12;98516.13;;;2.40;100.00
66762;BME280;53672;48.176;16.338;2022-11-20T21:30:13;98522.88;;;2.48;100.00
66762;BME280;53672;48.176;16.338;2022-11-20T21:35:13;98518.22;;;2.55;100.00
66762;BME280;53672;48.176;16.338;2022-11-20T21:40:15;98517.81;;;2.63;100.00
66762;BME280;53672;48.176;16.338;2022-11-20T21:45:16;98527.06;;;2.61;100.00
66762;BME280;53672;48.176;16.338;2022-11-20T21:50:17;98526.72;;;2.57;100.00
66762;BME280;53672;48.176;16.338;2022-11-20T21:55:19;98528.03;;;2.54;100.00
66762;BME280;53672;48.176;16.338;2022-11-20T22:00:19;98520.00;;;2.49;100.00
66762;BME280;53672;48.176;16.338;2022-11-20T22:05:20;98516.13;;;2.40;100.00
66762;BME280;53672;48.176;16.338;2022-11-20T22:10:22;98523.28;;;2.23;100.00
66762;BME280;53672;48.176;16.338;2022-11-20T22:15:22;98521.97;;;2.09;100.00
66762;BME280;53672;48.176;16.338;2022-11-20T22:20:23;98525.75;;;1.96;100.00
66762;BME280;53672;48.176;16.338;2022-11-20T22:25:25;98533.00;;;1.84;100.00
66762;BME280;53672;48.176;16.338;2022-11-20T22:30:25;98534.66;;;1.74;100.00
66762;BME280;53672;48.176;16.338;2022-11-20T22:35:26;98538.28;;;1.68;100.00
66762;BME280;53672;48.176;16.338;2022-11-20T22:40:28;98536.88;;;1.65;100.00
66762;BME280;53672;48.176;16.338;2022-11-20T22:45:29;98530.06;;;1.69;100.00
66762;BME280;53672;48.176;16.338;2022-11-20T22:50:30;98531.88;;;1.80;100.00
66762;BME280;53672;48.176;16.338;2022-11-20T22:55:32;98527.06;;;1.94;100.00
66762;BME280;53672;48.176;16.338;2022-11-20T23:00:33;98521.59;;;2.00;100.00
66762;BME280;53672;48.176;16.338;2022-11-20T23:05:33;98521.38;;;2.02;100.00
66762;BME280;53672;48.176;16.338;2022-11-20T23:10:35;98513.06;;;1.98;100.00
66762;BME280;53672;48.176;16.338;2022-11-20T23:15:36;98507.16;;;1.96;100.00
66762;BME280;53672;48.176;16.338;2022-11-20T23:20:37;98500.50;;;1.94;100.00
66762;BME280;53672;48.176;16.338;2022-11-20T23:25:38;98492.09;;;1.85;100.00
66762;BME280;53672;48.176;16.338;2022-11-20T23:30:39;98490.31;;;1.74;100.00
66762;BME280;53672;48.176;16.338;2022-11-20T23:35:39;98492.53;;;1.66;100.00
66762;BME280;53672;48.176;16.338;2022-11-20T23:40:45;98504.53;;;1.68;100.00
66762;BME280;53672;48.176;16.338;2022-11-20T23:45:47;98499.88;;;1.75;100.00
66762;BME280;53672;48.176;16.338;2022-11-20T23:50:48;98502.22;;;1.72;100.00
66762;BME280;53672;48.176;16.338;2022-11-20T23:55:51;98493.69;;;1.70;100.00
